createdAt,value
2022-08-16T00:01:40.981Z,22.22
2022-08-16T00:05:02.577Z,22.32
2022-08-16T00:08:36.529Z,22.33
2022-08-16T00:11:59.587Z,22.37
2022-08-16T00:15:50.920Z,22.39
2022-08-16T00:19:13.667Z,22.41
2022-08-16T00:22:35.601Z,22.40
2022-08-16T00:26:34.857Z,22.42
2022-08-16T00:29:37.589Z,22.44
2022-08-16T00:33:00.607Z,22.44
2022-08-16T00:36:21.582Z,22.41
2022-08-16T00:39:44.693Z,22.38
2022-08-16T00:43:05.613Z,22.41
2022-08-16T00:46:53.999Z,22.41
2022-08-16T00:50:20.584Z,22.36
2022-08-16T00:53:41.620Z,22.34
2022-08-16T00:57:05.615Z,22.30
2022-08-16T01:00:26.642Z,22.30
2022-08-16T01:03:49.319Z,22.29
2022-08-16T01:07:17.715Z,22.28
2022-08-16T01:10:40.604Z,22.28
2022-08-16T01:14:09.203Z,22.25
2022-08-16T01:17:36.917Z,22.22
2022-08-16T01:21:06.612Z,22.19
2022-08-16T01:24:53.871Z,22.20
2022-08-16T01:28:21.610Z,22.20
2022-08-16T01:31:51.671Z,22.20
2022-08-16T01:35:17.067Z,22.19
2022-08-16T01:38:41.618Z,22.19
2022-08-16T01:42:12.903Z,22.19
2022-08-16T01:45:40.821Z,22.16
2022-08-16T01:49:06.613Z,22.17
2022-08-16T01:52:30.697Z,22.15
2022-08-16T01:55:58.616Z,22.15
2022-08-16T01:59:25.626Z,22.15
2022-08-16T02:02:46.739Z,22.15
2022-08-16T02:06:14.637Z,22.10
2022-08-16T02:09:58.725Z,22.08
2022-08-16T02:13:21.627Z,22.08
2022-08-16T02:16:51.652Z,22.09
2022-08-16T02:20:13.635Z,22.10
2022-08-16T02:23:29.734Z,22.08
2022-08-16T02:26:50.668Z,22.05
2022-08-16T02:30:35.856Z,22.04
2022-08-16T02:33:54.629Z,22.01
2022-08-16T02:37:22.655Z,21.96
2022-08-16T02:40:43.619Z,21.92
2022-08-16T02:44:04.651Z,21.93
2022-08-16T02:47:27.626Z,21.92
2022-08-16T02:50:53.706Z,21.90
2022-08-16T02:54:25.623Z,21.90
2022-08-16T02:57:54.013Z,21.88
2022-08-16T03:01:24.890Z,21.89
2022-08-16T03:05:08.640Z,21.89
2022-08-16T03:08:52.295Z,21.88
2022-08-16T03:12:16.695Z,21.90
2022-08-16T03:15:38.699Z,21.94
2022-08-16T03:18:59.657Z,22.02
2022-08-16T03:22:27.966Z,22.11
2022-08-16T03:25:53.658Z,22.18
2022-08-16T03:29:14.678Z,22.24
2022-08-16T03:32:35.647Z,22.32
2022-08-16T03:35:57.664Z,22.41
2022-08-16T03:39:22.754Z,22.46
2022-08-16T03:43:19.163Z,22.48
2022-08-16T03:46:48.162Z,22.50
2022-08-16T03:50:26.117Z,22.57
2022-08-16T03:53:57.769Z,22.62
2022-08-16T03:57:22.701Z,22.66
2022-08-16T04:00:44.766Z,22.69
2022-08-16T04:04:06.904Z,22.71
2022-08-16T04:07:33.566Z,22.76
2022-08-16T04:10:54.854Z,22.82
2022-08-16T04:14:30.871Z,22.88
2022-08-16T04:17:51.671Z,22.94
2022-08-16T04:21:12.697Z,23.01
2022-08-16T04:24:54.870Z,23.09
2022-08-16T04:28:53.192Z,23.18
2022-08-16T04:32:05.663Z,23.24
2022-08-16T04:35:34.114Z,23.32
2022-08-16T04:38:55.675Z,23.41
2022-08-16T04:42:26.246Z,23.52
2022-08-16T04:46:00.537Z,23.61
2022-08-16T04:49:20.691Z,23.70
2022-08-16T04:52:42.652Z,23.75
2022-08-16T04:56:04.689Z,23.80
2022-08-16T04:59:29.476Z,23.87
2022-08-16T05:02:50.992Z,23.94
2022-08-16T05:06:16.697Z,24.06
2022-08-16T05:09:31.688Z,24.13
2022-08-16T05:12:57.724Z,24.18
2022-08-16T05:16:21.388Z,24.27
2022-08-16T05:19:57.638Z,24.34
2022-08-16T05:23:25.696Z,24.41
2022-08-16T05:26:52.762Z,24.49
2022-08-16T05:30:34.015Z,24.52
2022-08-16T05:34:03.773Z,24.55
2022-08-16T05:37:25.694Z,24.64
2022-08-16T05:40:59.684Z,24.73
2022-08-16T05:44:28.706Z,24.83
2022-08-16T05:47:59.578Z,24.89
2022-08-16T05:51:38.332Z,24.99
2022-08-16T05:55:03.740Z,25.05
2022-08-16T05:58:33.085Z,25.08
2022-08-16T06:01:58.837Z,25.15
2022-08-16T06:05:23.723Z,25.27
2022-08-16T06:08:46.327Z,25.35
2022-08-16T06:12:07.715Z,25.46
2022-08-16T06:15:33.707Z,25.56
2022-08-16T06:18:55.716Z,25.67
2022-08-16T06:22:19.452Z,25.75
2022-08-16T06:25:57.735Z,25.81
2022-08-16T06:29:22.724Z,25.90
2022-08-16T06:32:48.549Z,26.01
2022-08-16T06:36:09.719Z,26.08
2022-08-16T06:39:50.041Z,26.13
2022-08-16T06:43:27.760Z,26.14
2022-08-16T06:46:41.735Z,26.08
2022-08-16T06:50:10.747Z,26.13
2022-08-16T06:53:52.900Z,26.23
2022-08-16T06:57:16.848Z,26.34
2022-08-16T07:00:38.716Z,26.46
2022-08-16T07:04:04.730Z,26.55
2022-08-16T07:07:34.528Z,26.59
2022-08-16T07:10:56.778Z,26.61
2022-08-16T07:14:26.480Z,26.64
2022-08-16T07:17:48.724Z,26.66
2022-08-16T07:21:09.737Z,26.73
2022-08-16T07:24:32.731Z,26.82
2022-08-16T07:28:06.718Z,26.91
2022-08-16T07:31:38.142Z,26.99
2022-08-16T07:34:58.741Z,27.08
2022-08-16T07:38:20.206Z,27.17
2022-08-16T07:41:48.714Z,27.29
2022-08-16T07:45:10.744Z,27.34
2022-08-16T07:48:36.732Z,27.41
2022-08-16T07:51:57.766Z,27.44
2022-08-16T07:55:21.750Z,27.47
2022-08-16T07:58:43.473Z,27.41
2022-08-16T08:02:04.840Z,27.49
2022-08-16T08:05:35.804Z,27.55
2022-08-16T08:08:59.413Z,27.55
2022-08-16T08:12:32.721Z,27.48
2022-08-16T08:15:57.781Z,27.58
2022-08-16T08:19:18.733Z,27.76
2022-08-16T08:22:34.757Z,27.86
2022-08-16T08:25:53.736Z,28.00
2022-08-16T08:29:11.874Z,28.07
2022-08-16T08:32:58.152Z,28.13
2022-08-16T08:36:34.786Z,28.22
2022-08-16T08:40:11.797Z,28.25
2022-08-16T08:43:41.305Z,28.28
2022-08-16T08:47:10.957Z,28.37
2022-08-16T08:50:32.784Z,28.52
2022-08-16T08:53:58.047Z,28.64
2022-08-16T08:57:19.755Z,28.64
2022-08-16T09:01:03.791Z,28.72
2022-08-16T09:04:25.860Z,28.70
2022-08-16T09:07:54.634Z,28.64
2022-08-16T09:11:38.902Z,28.72
2022-08-16T09:15:01.773Z,28.82
2022-08-16T09:18:25.183Z,28.96
2022-08-16T09:21:47.861Z,29.05
2022-08-16T09:25:18.800Z,29.08
2022-08-16T09:29:14.401Z,29.05
2022-08-16T09:32:30.864Z,28.86
2022-08-16T09:35:53.094Z,28.87
2022-08-16T09:39:16.383Z,29.04
2022-08-16T09:42:56.424Z,29.20
2022-08-16T09:46:48.940Z,29.31
2022-08-16T09:50:01.783Z,29.47
2022-08-16T09:53:33.802Z,29.63
2022-08-16T09:56:54.793Z,29.68
2022-08-16T10:00:42.416Z,29.81
2022-08-16T10:04:02.641Z,29.86
2022-08-16T10:07:24.801Z,30.02
2022-08-16T10:10:47.771Z,30.27
2022-08-16T10:14:08.795Z,30.32
2022-08-16T10:17:36.782Z,30.27
2022-08-16T10:20:58.782Z,30.18
2022-08-16T10:24:28.472Z,30.24
2022-08-16T10:27:56.694Z,30.26
2022-08-16T10:31:43.509Z,30.30
2022-08-16T10:35:04.788Z,30.22
2022-08-16T10:38:27.854Z,30.10
2022-08-16T10:41:48.797Z,30.02
2022-08-16T10:45:09.856Z,30.01
2022-08-16T10:48:31.137Z,30.08
2022-08-16T10:52:03.239Z,30.24
2022-08-16T10:55:44.602Z,30.47
2022-08-16T11:02:59.225Z,30.90
2022-08-16T11:06:21.846Z,31.01
2022-08-16T11:09:48.848Z,31.01
2022-08-16T11:17:10.798Z,31.00
2022-08-16T11:20:41.391Z,31.08
2022-08-16T11:24:03.823Z,31.13
2022-08-16T11:27:44.816Z,31.12
2022-08-16T11:31:05.823Z,31.14
2022-08-16T11:34:50.313Z,31.26
2022-08-16T11:38:46.479Z,31.42
2022-08-16T11:41:54.819Z,31.51
2022-08-16T11:45:15.827Z,31.61
2022-08-16T11:48:42.802Z,31.74
2022-08-16T11:52:03.819Z,31.87
2022-08-16T11:55:25.828Z,31.87
2022-08-16T11:58:51.729Z,31.79
2022-08-16T12:02:31.939Z,31.68
2022-08-16T12:05:56.833Z,31.76
2022-08-16T12:09:18.852Z,32.05
2022-08-16T12:12:40.821Z,32.34
2022-08-16T12:16:02.843Z,32.54
2022-08-16T12:19:35.549Z,32.98
2022-08-16T12:22:57.891Z,33.31
2022-08-16T12:26:18.857Z,33.35
2022-08-16T12:29:39.907Z,33.48
2022-08-16T12:33:00.831Z,33.58
2022-08-16T12:36:23.844Z,33.60
2022-08-16T12:39:50.584Z,33.69
2022-08-16T12:43:14.844Z,33.84
2022-08-16T12:46:35.829Z,34.51
2022-08-16T12:49:56.857Z,36.56
2022-08-16T12:53:50.841Z,37.95
2022-08-16T12:57:14.149Z,38.51
2022-08-16T13:00:36.883Z,39.26
2022-08-16T13:04:12.337Z,39.75
2022-08-16T13:07:45.128Z,40.13
2022-08-16T13:11:07.611Z,40.25
2022-08-16T13:14:32.300Z,40.72
2022-08-16T13:17:53.838Z,40.98
2022-08-16T13:21:23.776Z,41.90
2022-08-16T13:24:44.851Z,42.71
2022-08-16T13:28:07.902Z,42.76
2022-08-16T13:31:35.838Z,43.31
2022-08-16T13:34:57.872Z,43.57
2022-08-16T13:38:21.604Z,44.01
2022-08-16T13:41:53.890Z,44.33
2022-08-16T13:45:15.660Z,44.48
2022-08-16T13:48:44.286Z,44.34
2022-08-16T13:52:05.844Z,44.02
2022-08-16T13:55:26.885Z,43.88
2022-08-16T13:58:55.124Z,44.30
2022-08-16T14:02:15.990Z,44.71
2022-08-16T14:05:36.859Z,44.59
2022-08-16T14:08:59.061Z,43.80
2022-08-16T14:12:26.919Z,42.00
2022-08-16T14:15:41.974Z,41.37
2022-08-16T14:19:02.866Z,41.43
2022-08-16T14:22:31.502Z,41.49
2022-08-16T14:25:58.872Z,41.96
2022-08-16T14:29:19.964Z,42.67
2022-08-16T14:32:46.946Z,42.86
2022-08-16T14:36:11.875Z,43.35
2022-08-16T14:39:46.921Z,43.84
2022-08-16T14:43:11.864Z,43.86
2022-08-16T14:46:36.884Z,43.52
2022-08-16T14:49:59.886Z,43.30
2022-08-16T14:53:22.865Z,43.15
2022-08-16T14:56:46.923Z,43.64
2022-08-16T15:00:18.093Z,44.19
2022-08-16T15:03:38.880Z,44.39
2022-08-16T15:07:06.871Z,44.62
2022-08-16T15:10:33.850Z,44.93
2022-08-16T15:13:57.881Z,44.98
2022-08-16T15:17:18.867Z,44.77
2022-08-16T15:20:42.885Z,44.58
2022-08-16T15:24:03.849Z,44.63
2022-08-16T15:27:26.872Z,44.83
2022-08-16T15:31:00.857Z,44.32
2022-08-16T15:34:26.023Z,43.58
2022-08-16T15:37:46.892Z,43.00
2022-08-16T15:41:14.934Z,41.93
2022-08-16T15:44:52.130Z,40.83
2022-08-16T15:48:14.874Z,39.33
2022-08-16T15:51:37.888Z,37.84
2022-08-16T15:55:00.872Z,36.52
2022-08-16T15:58:35.599Z,35.59
2022-08-16T16:01:59.887Z,35.15
2022-08-16T16:05:25.894Z,34.66
2022-08-16T16:08:47.899Z,33.75
2022-08-16T16:12:43.672Z,32.86
2022-08-16T16:15:58.278Z,32.08
2022-08-16T16:19:18.911Z,31.52
2022-08-16T16:22:41.879Z,31.05
2022-08-16T16:26:05.727Z,30.69
2022-08-16T16:29:26.863Z,30.43
2022-08-16T16:32:47.946Z,30.18
2022-08-16T16:36:11.914Z,29.95
2022-08-16T16:39:34.937Z,29.69
2022-08-16T16:42:55.903Z,29.45
2022-08-16T16:46:40.543Z,29.22
2022-08-16T16:49:59.909Z,28.98
2022-08-16T16:53:23.188Z,28.75
2022-08-16T16:56:49.539Z,28.56
2022-08-16T17:00:30.225Z,28.42
2022-08-16T17:04:01.913Z,28.25
2022-08-16T17:07:33.902Z,28.07
2022-08-16T17:10:54.909Z,27.92
2022-08-16T17:14:27.584Z,27.76
2022-08-16T17:17:59.843Z,27.64
2022-08-16T17:21:21.922Z,27.50
2022-08-16T17:24:45.098Z,27.39
2022-08-16T17:28:58.297Z,27.33
2022-08-16T17:31:47.073Z,27.25
2022-08-16T17:35:10.822Z,27.20
2022-08-16T17:38:43.771Z,27.14
2022-08-16T17:42:05.937Z,27.04
2022-08-16T17:45:26.946Z,26.99
2022-08-16T17:48:47.926Z,26.95
2022-08-16T17:52:08.973Z,26.86
2022-08-16T17:55:35.967Z,26.80
2022-08-16T17:58:56.910Z,26.75
2022-08-16T18:02:43.884Z,26.73
2022-08-16T18:05:59.981Z,26.65
2022-08-16T18:09:21.927Z,26.56
2022-08-16T18:12:54.978Z,26.53
2022-08-16T18:16:16.938Z,26.47
2022-08-16T18:19:37.912Z,26.40
2022-08-16T18:26:33.912Z,26.23
2022-08-16T18:29:55.974Z,26.21
2022-08-16T18:33:16.954Z,26.16
2022-08-16T18:36:39.931Z,26.12
2022-08-16T18:40:00.960Z,26.02
2022-08-16T18:44:23.966Z,25.89
2022-08-16T18:47:06.953Z,25.88
2022-08-16T18:50:28.933Z,25.82
2022-08-16T18:54:09.944Z,25.74
2022-08-16T18:57:30.930Z,25.68
2022-08-16T19:00:56.697Z,25.64
2022-08-16T19:04:47.426Z,25.61
2022-08-16T19:07:51.973Z,25.59
2022-08-16T19:11:12.948Z,25.58
2022-08-16T19:14:36.953Z,25.53
2022-08-16T19:17:58.938Z,25.52
2022-08-16T19:21:21.963Z,25.50
2022-08-16T19:24:43.119Z,25.49
2022-08-16T19:28:04.964Z,25.48
2022-08-16T19:31:34.944Z,25.45
2022-08-16T19:34:56.017Z,25.43
2022-08-16T19:38:17.987Z,25.40
2022-08-16T19:41:38.961Z,25.40
2022-08-16T19:45:00.981Z,25.39
2022-08-16T19:48:21.949Z,25.34
2022-08-16T19:51:42.955Z,25.29
2022-08-16T19:55:05.954Z,25.25
2022-08-16T19:58:26.971Z,25.21
2022-08-16T20:01:47.955Z,25.16
2022-08-16T20:05:14.973Z,25.12
2022-08-16T20:08:35.975Z,25.08
2022-08-16T20:11:59.002Z,25.12
2022-08-16T20:15:16.362Z,25.14
2022-08-16T20:18:29.994Z,25.12
2022-08-16T20:21:50.984Z,25.04
2022-08-16T20:25:07.978Z,24.96
2022-08-16T20:28:41.928Z,24.89
2022-08-16T20:32:10.978Z,24.80
2022-08-16T20:35:33.969Z,24.72
2022-08-16T20:38:55.000Z,24.70
2022-08-16T20:42:15.967Z,24.72
2022-08-16T20:45:36.990Z,24.73
2022-08-16T20:48:57.982Z,24.68
2022-08-16T20:52:24.009Z,24.60
2022-08-16T20:55:50.965Z,24.48
2022-08-16T20:59:12.039Z,24.36
2022-08-16T21:02:40.007Z,24.31
2022-08-16T21:06:01.991Z,24.25
2022-08-16T21:09:22.982Z,24.18
2022-08-16T21:12:44.002Z,24.18
2022-08-16T21:16:04.991Z,24.12
2022-08-16T21:19:25.997Z,24.01
2022-08-16T21:22:47.007Z,23.94
2022-08-16T21:26:11.281Z,23.87
2022-08-16T21:29:39.644Z,23.83
2022-08-16T21:33:03.993Z,23.77
2022-08-16T21:36:35.833Z,23.73
2022-08-16T21:39:58.074Z,23.64
2022-08-16T21:43:30.031Z,23.53
2022-08-16T21:46:51.010Z,23.50
2022-08-16T21:50:12.008Z,23.40
2022-08-16T21:53:35.001Z,23.28
2022-08-16T21:56:56.000Z,23.18
2022-08-16T22:00:24.004Z,23.13
2022-08-16T22:03:45.003Z,23.09
2022-08-16T22:07:06.003Z,23.02
2022-08-16T22:11:04.749Z,22.97
2022-08-16T22:14:09.008Z,22.91
2022-08-16T22:17:30.018Z,22.89
2022-08-16T22:20:51.024Z,22.92
2022-08-16T22:24:12.016Z,22.94
2022-08-16T22:27:33.036Z,22.90
2022-08-16T22:30:55.020Z,22.89
2022-08-16T22:34:16.032Z,22.82
2022-08-16T22:37:37.026Z,22.75
2022-08-16T22:41:00.037Z,22.68
2022-08-16T22:44:21.013Z,22.66
2022-08-16T22:47:42.023Z,22.65
2022-08-16T22:51:03.013Z,22.61
2022-08-16T22:54:45.871Z,22.60
2022-08-16T22:57:58.040Z,22.59
2022-08-16T23:01:21.083Z,22.54
2022-08-16T23:04:42.022Z,22.58
2022-08-16T23:08:03.069Z,22.53
2022-08-16T23:11:29.007Z,22.48
2022-08-16T23:14:50.037Z,22.43
2022-08-16T23:18:15.034Z,22.41
2022-08-16T23:21:37.234Z,22.36
2022-08-16T23:24:58.025Z,22.36
2022-08-16T23:28:20.024Z,22.39
2022-08-16T23:31:41.019Z,22.39
2022-08-16T23:35:02.040Z,22.39
2022-08-16T23:38:37.993Z,22.41
2022-08-16T23:41:59.034Z,22.42
2022-08-16T23:45:21.038Z,22.39
2022-08-16T23:50:01.700Z,22.33
2022-08-16T23:52:40.601Z,22.28
2022-08-16T23:56:13.047Z,22.26
2022-08-16T23:59:38.055Z,22.25
